Time;durP1;ratioP1;P1;durP2;ratioP2;P2;SDS_P1;SDS_P2;PMS_P1;PMS_P2;Temp;Humidity;BMP_temperature;BMP_pressure;BME280_temperature;BME280_humidity;BME280_pressure;Samples;Min_cycle;Max_cycle;Signal;HPM_P1;HPM_P2
2021/11/25 00:00:31;;;;;;;13.17;8.00;;;4.90;99.90;4.10;100454.00;;;;4956965;28;110476;-63
2021/11/25 00:02:57;;;;;;;13.33;9.40;;;4.30;99.90;4.00;100448.00;;;;4956684;28;87774;-63
2021/11/25 00:05:23;;;;;;;13.77;9.00;;;4.30;99.90;4.00;100441.00;;;;4967726;28;87840;-63
2021/11/25 00:07:48;;;;;;;10.73;7.00;;;4.20;99.90;4.00;100452.00;;;;4977118;28;88314;-63
2021/11/25 00:10:14;;;;;;;9.70;7.70;;;4.20;99.90;4.00;100452.00;;;;4977242;28;88923;-64
2021/11/25 00:12:41;;;;;;;13.03;8.17;;;4.20;99.90;4.00;100450.00;;;;4977108;28;87632;-62
2021/11/25 00:15:09;;;;;;;13.00;9.50;;;4.20;99.90;4.00;100445.00;;;;4977116;28;88234;-63
2021/11/25 00:17:35;;;;;;;12.77;8.87;;;4.20;99.90;4.00;100432.00;;;;4976849;28;88771;-63
2021/11/25 00:20:04;;;;;;;12.40;8.20;;;4.20;99.90;4.00;100430.00;;;;4970053;28;89721;-62
2021/11/25 00:22:29;;;;;;;15.50;9.03;;;4.20;99.90;4.00;100429.00;;;;4944725;28;87519;-64
2021/11/25 00:24:55;;;;;;;13.60;8.17;;;4.20;99.90;4.00;100436.00;;;;4960388;28;109000;-63
2021/11/25 00:27:21;;;;;;;15.33;8.53;;;4.20;99.90;3.90;100422.00;;;;4956763;28;117331;-63
2021/11/25 00:29:47;;;;;;;14.33;9.90;;;4.10;99.90;3.80;100416.00;;;;4957383;28;88302;-61
2021/11/25 00:32:13;;;;;;;12.83;9.43;;;4.10;99.90;3.80;100416.00;;;;4958186;28;110570;-63
2021/11/25 00:34:38;;;;;;;12.47;8.83;;;3.70;99.90;3.80;100414.00;;;;4975908;28;107479;-63
2021/11/25 00:37:04;;;;;;;13.20;9.73;;;4.00;99.90;3.70;100418.00;;;;4975397;28;100895;-63
2021/11/25 00:39:30;;;;;;;15.07;8.93;;;4.00;99.90;3.70;100409.00;;;;4974315;28;88444;-63
2021/11/25 00:41:55;;;;;;;10.73;8.33;;;3.90;99.90;3.70;100416.00;;;;4956013;28;109199;-63
2021/11/25 00:44:21;;;;;;;12.83;9.33;;;3.90;99.90;3.70;100411.00;;;;4976627;28;87960;-63
2021/11/25 00:46:47;;;;;;;16.07;9.00;;;3.90;99.90;3.70;100401.00;;;;4975656;28;117676;-65
2021/11/25 00:49:12;;;;;;;15.03;10.97;;;3.90;99.90;3.70;100403.00;;;;4976072;28;116525;-63
2021/11/25 00:51:38;;;;;;;13.40;10.10;;;3.90;99.90;3.70;100399.00;;;;4975197;28;111464;-63
2021/11/25 00:54:04;;;;;;;15.73;9.43;;;3.90;99.90;3.70;100398.00;;;;4975378;28;109014;-63
2021/11/25 00:56:30;;;;;;;16.13;10.10;;;3.90;99.90;3.70;100407.00;;;;4974164;28;117461;-64
2021/11/25 00:58:56;;;;;;;13.10;9.47;;;3.90;99.90;3.70;100401.00;;;;4975895;28;88720;-64
2021/11/25 01:01:21;;;;;;;13.67;9.73;;;4.00;99.90;3.80;100403.00;;;;4960989;28;98565;-63
2021/11/25 01:03:47;;;;;;;14.10;9.30;;;3.90;99.90;3.80;100398.00;;;;4955848;28;94728;-64
2021/11/25 01:06:13;;;;;;;16.00;10.40;;;4.00;99.90;3.80;100384.00;;;;4954846;28;118282;-63
2021/11/25 01:08:39;;;;;;;17.80;10.97;;;3.90;99.90;3.80;100383.00;;;;4972748;28;106834;-63
2021/11/25 01:11:07;;;;;;;18.87;11.77;;;4.00;99.90;3.80;100384.00;;;;4976139;28;87696;-63
2021/11/25 01:13:33;;;;;;;16.57;10.23;;;4.10;99.90;3.90;100383.00;;;;4960614;28;87745;-63
2021/11/25 01:15:59;;;;;;;17.10;9.93;;;4.10;99.90;3.90;100376.00;;;;4954221;28;88548;-63
2021/11/25 01:18:25;;;;;;;14.50;10.17;;;4.10;99.90;4.00;100378.00;;;;4955347;28;116521;-63
2021/11/25 01:20:53;;;;;;;14.57;10.57;;;4.20;99.90;4.00;100373.00;;;;4961172;28;88121;-63
2021/11/25 01:23:25;;;;;;;16.20;10.97;;;4.20;99.90;4.00;100363.00;;;;4975368;28;94687;-63
2021/11/25 01:25:53;;;;;;;13.73;9.20;;;4.20;99.90;4.00;100367.00;;;;4975814;28;88797;-63
2021/11/25 01:28:24;;;;;;;12.40;10.87;;;4.30;99.90;4.10;100361.00;;;;4975550;28;88615;-64
2021/11/25 01:30:55;;;;;;;16.07;9.70;;;4.20;99.90;4.10;100356.00;;;;4975361;28;96109;-63
2021/11/25 01:33:21;;;;;;;17.03;10.53;;;4.30;99.90;4.20;100353.00;;;;4975094;28;95131;-64
2021/11/25 01:35:48;;;;;;;14.87;9.73;;;4.30;99.90;4.20;100353.00;;;;4975066;28;88952;-63
2021/11/25 01:38:15;;;;;;;14.47;9.77;;;4.30;99.90;4.20;100338.00;;;;4962198;28;109554;-63
2021/11/25 01:40:43;;;;;;;11.70;8.80;;;4.40;99.90;4.30;100340.00;;;;4956213;28;87696;-62
2021/11/25 01:43:09;;;;;;;11.37;8.40;;;4.50;99.90;4.30;100345.00;;;;4956480;28;87872;-63
2021/11/25 01:45:36;;;;;;;14.23;9.30;;;4.50;99.90;4.30;100325.00;;;;4956626;28;87930;-63
2021/11/25 01:48:03;;;;;;;12.40;8.90;;;4.50;99.90;4.30;100324.00;;;;4957082;28;89094;-64
2021/11/25 01:50:32;;;;;;;11.77;8.23;;;4.50;99.90;4.40;100323.00;;;;4976349;28;87724;-64
2021/11/25 01:52:58;;;;;;;13.23;9.53;;;4.50;99.90;4.40;100320.00;;;;4955874;28;87706;-63
2021/11/25 01:55:25;;;;;;;11.63;8.30;;;4.50;99.90;4.40;100315.00;;;;4975421;28;90305;-63
2021/11/25 01:57:52;;;;;;;13.90;10.03;;;4.60;99.90;4.40;100312.00;;;;4974276;28;89739;-63
2021/11/25 02:00:26;;;;;;;13.17;8.37;;;4.60;99.90;4.40;100314.00;;;;4972972;28;87663;-64
2021/11/25 02:02:53;;;;;;;10.97;8.63;;;4.50;99.90;4.40;100304.00;;;;4966924;28;87923;-63
2021/11/25 02:05:20;;;;;;;12.00;8.63;;;4.80;99.90;4.40;100295.00;;;;4955533;28;87890;-63
2021/11/25 02:07:46;;;;;;;14.50;10.10;;;4.60;99.90;4.40;100299.00;;;;4966819;28;87922;-64
2021/11/25 02:10:13;;;;;;;10.30;8.13;;;4.50;99.90;4.40;100296.00;;;;4974920;28;87711;-64
2021/11/25 02:12:39;;;;;;;14.20;8.70;;;4.60;99.90;4.40;100289.00;;;;4974953;28;89185;-64
2021/11/25 02:15:08;;;;;;;11.87;9.67;;;4.60;99.90;4.40;100284.00;;;;4975403;28;88518;-63
2021/11/25 02:17:35;;;;;;;11.13;8.73;;;4.60;99.90;4.40;100286.00;;;;4960259;28;88275;-63
2021/11/25 02:20:05;;;;;;;9.57;7.63;;;4.60;99.90;4.40;100282.00;;;;4956777;28;88822;-64
2021/11/25 02:22:31;;;;;;;15.80;8.70;;;4.60;99.90;4.40;100271.00;;;;4964702;28;87953;-64
2021/11/25 02:24:57;;;;;;;13.07;9.77;;;4.60;99.90;4.40;100270.00;;;;4973560;28;103613;-64
2021/11/25 02:27:22;;;;;;;14.03;9.23;;;4.60;99.90;4.40;100259.00;;;;4977702;28;117563;-62
2021/11/25 02:29:49;;;;;;;10.60;7.53;;;4.60;99.90;4.30;100262.00;;;;4978418;28;111026;-64
2021/11/25 02:32:36;;;;;;;13.87;8.90;;;4.50;99.90;4.30;100245.00;;;;4978697;28;87694;-64
2021/11/25 02:35:10;;;;;;;13.77;7.77;;;4.60;99.90;4.20;100235.00;;;;4978283;28;101455;-62
2021/11/25 02:37:36;;;;;;;11.07;8.63;;;4.50;99.90;4.20;100246.00;;;;4978318;28;105414;-64
2021/11/25 02:40:15;;;;;;;11.80;8.57;;;4.40;99.90;4.10;100243.00;;;;4977441;28;109509;-64
2021/11/25 02:42:41;;;;;;;9.13;7.40;;;4.30;99.90;4.00;100239.00;;;;4978762;28;87992;-63
2021/11/25 02:45:07;;;;;;;13.80;7.87;;;4.30;99.90;3.90;100229.00;;;;4963050;28;119058;-63
2021/11/25 02:47:33;;;;;;;10.53;8.07;;;4.10;99.90;3.80;100230.00;;;;4958846;28;91917;-63
2021/11/25 02:49:58;;;;;;;14.67;8.33;;;4.00;99.90;3.60;100213.00;;;;4958610;28;108384;-63
2021/11/25 02:52:25;;;;;;;13.90;8.57;;;3.90;99.90;3.50;100216.00;;;;4957982;28;108906;-65
2021/11/25 02:54:52;;;;;;;11.93;8.23;;;3.80;99.90;3.40;100210.00;;;;4958626;28;88501;-63
2021/11/25 02:57:18;;;;;;;10.90;8.00;;;3.70;99.90;3.30;100207.00;;;;4958455;28;98240;-63
2021/11/25 02:59:43;;;;;;;11.57;7.63;;;3.50;99.90;3.10;100202.00;;;;4958071;28;109152;-64
2021/11/25 03:02:09;;;;;;;10.60;8.43;;;3.40;99.90;3.00;100212.00;;;;4959017;28;90240;-63
2021/11/25 03:04:35;;;;;;;10.30;8.50;;;3.30;99.90;2.90;100196.00;;;;4957567;28;118174;-63
2021/11/25 03:07:01;;;;;;;14.50;8.37;;;3.20;99.90;2.80;100193.00;;;;4958542;28;116678;-64
2021/11/25 03:09:27;;;;;;;11.50;8.93;;;3.10;99.90;2.70;100200.00;;;;4977985;28;88657;-63
2021/11/25 03:11:53;;;;;;;11.50;8.47;;;3.00;99.90;2.60;100194.00;;;;4973273;28;87774;-64
2021/11/25 03:14:20;;;;;;;12.53;8.33;;;3.50;99.90;2.50;100193.00;;;;4971788;28;88912;-63
2021/11/25 03:16:46;;;;;;;14.33;8.03;;;3.30;99.90;2.40;100189.00;;;;4976941;28;98220;-64
2021/11/25 03:19:13;;;;;;;12.33;8.60;;;3.00;99.90;2.30;100184.00;;;;4978498;28;87898;-63
2021/11/25 03:21:39;;;;;;;15.27;9.93;;;2.60;99.90;2.20;100193.00;;;;4978544;28;88019;-65
2021/11/25 03:24:05;;;;;;;11.93;9.23;;;2.50;99.90;2.10;100186.00;;;;4977013;28;102843;-63
2021/11/25 03:26:31;;;;;;;14.37;8.77;;;2.40;99.90;2.10;100171.00;;;;4978076;28;99918;-63
2021/11/25 03:29:00;;;;;;;10.93;8.40;;;2.30;99.90;2.00;100180.00;;;;4977357;28;110704;-63
2021/11/25 03:31:30;;;;;;;10.90;7.97;;;3.00;99.90;1.90;100185.00;;;;4977819;28;87956;-63
2021/11/25 03:33:58;;;;;;;13.87;9.73;;;2.20;99.90;1.80;100171.00;;;;4977169;28;90184;-63
2021/11/25 03:36:25;;;;;;;10.13;7.40;;;2.80;99.90;1.70;100169.00;;;;4977020;28;88321;-64
2021/11/25 03:38:52;;;;;;;13.73;8.87;;;2.10;99.90;1.60;100180.00;;;;4957351;28;87589;-63
2021/11/25 03:41:19;;;;;;;12.27;7.77;;;2.30;99.90;1.60;100169.00;;;;4975727;28;87787;-63
2021/11/25 03:43:45;;;;;;;13.73;8.73;;;1.90;99.90;1.50;100163.00;;;;4977024;28;87907;-63
2021/11/25 03:46:12;;;;;;;11.87;9.23;;;1.90;99.90;1.40;100164.00;;;;4978255;28;89894;-63
2021/11/25 03:48:38;;;;;;;12.53;10.07;;;1.80;99.90;1.30;100160.00;;;;4977858;28;87522;-63
2021/11/25 03:51:08;;;;;;;13.80;10.07;;;1.70;99.90;1.30;100152.00;;;;4977136;28;86908;-63
2021/11/25 03:53:37;;;;;;;14.30;7.87;;;1.50;99.90;1.20;100148.00;;;;4976883;28;103600;-63
2021/11/25 03:56:04;;;;;;;11.63;8.93;;;2.10;99.90;1.10;100152.00;;;;4977525;28;88665;-63
2021/11/25 03:58:30;;;;;;;13.67;9.77;;;1.50;99.90;1.10;100147.00;;;;4977391;28;88836;-62
2021/11/25 04:00:55;;;;;;;11.00;8.53;;;1.50;99.90;1.00;100151.00;;;;4976820;28;108867;-62
2021/11/25 04:03:23;;;;;;;15.40;9.50;;;1.30;99.90;0.90;100144.00;;;;4976469;28;96626;-64
2021/11/25 04:05:49;;;;;;;13.83;9.80;;;1.70;99.90;0.80;100152.00;;;;4976834;28;93044;-63
2021/11/25 04:08:15;;;;;;;11.63;8.50;;;1.20;99.90;0.80;100145.00;;;;4977397;28;87549;-64
2021/11/25 04:10:41;;;;;;;11.93;8.90;;;1.10;99.90;0.70;100139.00;;;;4977683;28;88043;-64
2021/11/25 04:13:07;;;;;;;12.77;9.13;;;1.10;99.90;0.60;100138.00;;;;4975277;28;88892;-64
2021/11/25 04:15:33;;;;;;;10.63;7.27;;;1.90;99.90;0.60;100136.00;;;;4975564;28;116183;-63
2021/11/25 04:17:58;;;;;;;14.87;8.50;;;0.90;99.90;0.50;100139.00;;;;4975559;28;87690;-63
2021/11/25 04:20:24;;;;;;;16.77;8.50;;;0.80;99.90;0.50;100133.00;;;;4977535;28;87739;-64
2021/11/25 04:22:51;;;;;;;14.43;10.20;;;1.60;99.90;0.30;100135.00;;;;4974807;28;117915;-63
2021/11/25 04:25:16;;;;;;;14.83;9.77;;;0.80;99.90;0.30;100124.00;;;;4976444;28;87939;-63
2021/11/25 04:27:44;;;;;;;11.77;9.33;;;0.70;99.90;0.20;100120.00;;;;4977044;28;87720;-63
2021/11/25 04:30:24;;;;;;;10.33;8.77;;;1.20;99.90;0.10;100110.00;;;;4975685;28;88451;-63
2021/11/25 04:35:36;;;;;;;13.50;9.07;;;0.90;99.90;0.00;100115.00;;;;4962932;28;87835;-63
2021/11/25 04:38:13;;;;;;;9.50;7.80;;;0.30;99.90;-0.10;100114.00;;;;4977621;28;87879;-64
2021/11/25 04:40:44;;;;;;;11.20;7.60;;;1.20;99.90;-0.10;100115.00;;;;4977318;28;86973;-63
2021/11/25 04:43:11;;;;;;;13.27;7.93;;;0.30;99.90;-0.20;100093.00;;;;4962141;28;89233;-63
2021/11/25 04:45:39;;;;;;;9.93;8.43;;;0.60;99.90;-0.30;100095.00;;;;4961955;28;102693;-63
2021/11/25 04:48:05;;;;;;;11.23;8.33;;;0.10;99.90;-0.30;100086.00;;;;4976988;28;88537;-64
2021/11/25 04:50:32;;;;;;;11.97;9.03;;;0.10;99.90;-0.40;100093.00;;;;4977566;28;87717;-63
2021/11/25 04:52:58;;;;;;;10.50;7.23;;;0.00;99.90;-0.40;100098.00;;;;4976375;28;88676;-63
2021/11/25 04:55:24;;;;;;;10.57;7.27;;;0.00;99.90;-0.50;100090.00;;;;4975828;28;87886;-63
2021/11/25 04:57:50;;;;;;;11.67;7.53;;;-0.10;99.90;-0.50;100090.00;;;;4977478;28;87785;-63
2021/11/25 05:00:17;;;;;;;9.27;7.57;;;-0.20;99.90;-0.60;100089.00;;;;4976152;28;108849;-63
2021/11/25 05:02:44;;;;;;;11.67;8.00;;;-0.10;99.90;-0.60;100088.00;;;;4972769;28;88160;-63
2021/11/25 05:05:10;;;;;;;11.23;8.03;;;-0.30;99.90;-0.60;100089.00;;;;4956169;28;118053;-64
2021/11/25 05:07:36;;;;;;;14.60;7.73;;;-0.10;99.90;-0.70;100073.00;;;;4956354;28;87861;-64
2021/11/25 05:10:05;;;;;;;7.73;6.90;;;-0.40;99.90;-0.70;100077.00;;;;4957436;28;87762;-63
2021/11/25 05:12:31;;;;;;;9.40;7.60;;;-0.40;99.90;-0.80;100076.00;;;;4956410;28;89944;-63
2021/11/25 05:14:57;;;;;;;10.63;7.73;;;-0.40;99.90;-0.80;100070.00;;;;4956817;28;89655;-63
2021/11/25 05:17:24;;;;;;;12.13;8.07;;;-0.30;99.90;-0.80;100066.00;;;;4955678;28;111691;-63
2021/11/25 05:19:50;;;;;;;10.83;8.03;;;-0.40;99.90;-0.80;100080.00;;;;4956807;28;87750;-63
2021/11/25 05:22:15;;;;;;;12.90;9.20;;;-0.40;99.90;-0.90;100084.00;;;;4956076;28;89001;-63
2021/11/25 05:24:41;;;;;;;10.00;7.10;;;-0.50;99.90;-0.90;100074.00;;;;4956113;28;88617;-61
2021/11/25 05:27:07;;;;;;;10.33;8.63;;;-0.40;99.90;-0.90;100078.00;;;;4954982;28;108198;-63
2021/11/25 05:29:33;;;;;;;11.43;8.43;;;-0.50;99.90;-0.80;100080.00;;;;4957212;28;87073;-63
2021/11/25 05:31:58;;;;;;;10.17;7.67;;;-0.40;99.90;-0.80;100079.00;;;;4975011;28;117346;-63
2021/11/25 05:34:24;;;;;;;11.93;7.83;;;0.30;99.90;-0.70;100080.00;;;;4959899;28;88246;-63
2021/11/25 05:36:50;;;;;;;18.63;10.40;;;-0.40;99.90;-0.60;100084.00;;;;4956835;28;88710;-64
2021/11/25 05:39:16;;;;;;;15.70;10.43;;;-0.30;99.90;-0.50;100099.00;;;;4955395;28;107812;-63
2021/11/25 05:41:42;;;;;;;9.67;8.63;;;-0.20;99.90;-0.40;100076.00;;;;4954229;28;118077;-63
2021/11/25 05:44:08;;;;;;;13.97;9.93;;;-0.10;99.90;-0.30;100087.00;;;;4962469;28;87660;-63
2021/11/25 05:46:35;;;;;;;17.17;10.77;;;-0.10;99.90;-0.10;100081.00;;;;4976301;28;87634;-63
2021/11/25 05:49:01;;;;;;;10.07;8.63;;;0.20;99.90;0.00;100079.00;;;;4975165;28;88010;-64
2021/11/25 05:51:26;;;;;;;15.37;10.67;;;0.20;99.90;0.10;100078.00;;;;4975222;28;87906;-63
2021/11/25 05:53:52;;;;;;;17.77;11.50;;;0.40;99.90;0.20;100064.00;;;;4975294;28;88798;-64
2021/11/25 05:56:18;;;;;;;16.73;11.57;;;0.40;99.90;0.30;100086.00;;;;4975017;28;87806;-63
2021/11/25 05:58:44;;;;;;;12.10;10.47;;;0.50;99.90;0.40;100065.00;;;;4954830;28;87886;-63
2021/11/25 06:01:10;;;;;;;16.40;11.47;;;0.60;99.90;0.40;100064.00;;;;4961181;28;89487;-63
2021/11/25 06:03:36;;;;;;;15.63;11.23;;;0.60;99.90;0.50;100079.00;;;;4973990;28;118742;-63
2021/11/25 06:06:01;;;;;;;21.10;12.73;;;1.50;99.90;0.50;100063.00;;;;4974593;28;103164;-63
2021/11/25 06:08:27;;;;;;;21.47;13.17;;;0.80;99.90;0.60;100074.00;;;;4973605;28;104829;-64
2021/11/25 06:10:54;;;;;;;17.83;12.57;;;0.90;99.90;0.60;100060.00;;;;4957490;28;118295;-63
2021/11/25 06:13:20;;;;;;;19.63;12.13;;;0.90;99.90;0.70;100056.00;;;;4961039;28;88127;-63
2021/11/25 06:15:47;;;;;;;24.47;14.63;;;0.90;99.90;0.70;100061.00;;;;4969083;28;87804;-62
2021/11/25 06:18:14;;;;;;;21.27;12.80;;;1.10;99.90;0.80;100065.00;;;;4971639;28;87123;-64
2021/11/25 06:20:40;;;;;;;21.00;12.30;;;1.10;99.90;0.80;100064.00;;;;4967271;28;88174;-63
2021/11/25 06:23:06;;;;;;;20.80;14.17;;;1.00;99.90;0.90;100056.00;;;;4946697;28;108316;-62
2021/11/25 06:25:32;;;;;;;19.47;13.57;;;1.10;99.90;0.90;100053.00;;;;4971008;28;88633;-63
2021/11/25 06:27:58;;;;;;;22.97;14.43;;;1.10;99.90;1.00;100059.00;;;;4967785;28;104726;-62
2021/11/25 06:30:24;;;;;;;21.33;14.13;;;1.60;99.90;1.00;100055.00;;;;4966162;28;117278;-62
2021/11/25 06:32:50;;;;;;;21.63;14.20;;;1.30;99.90;1.10;100064.00;;;;4970952;28;98020;-62
2021/11/25 06:35:19;;;;;;;23.97;14.87;;;2.00;99.90;1.10;100059.00;;;;4964463;28;88536;-62
2021/11/25 06:37:49;;;;;;;22.47;14.37;;;1.30;99.90;1.20;100060.00;;;;4946682;28;87879;-63
2021/11/25 06:40:21;;;;;;;23.60;14.43;;;1.40;99.90;1.20;100042.00;;;;4951262;28;88225;-62
2021/11/25 06:42:47;;;;;;;23.03;15.17;;;1.40;99.90;1.30;100042.00;;;;4949717;28;88687;-63
2021/11/25 06:45:13;;;;;;;27.17;17.30;;;2.20;99.90;1.30;100031.00;;;;4946091;28;113327;-63
2021/11/25 06:47:39;;;;;;;26.83;16.93;;;1.60;99.90;1.40;100040.00;;;;4945414;28;87840;-63
2021/11/25 06:50:09;;;;;;;26.13;15.97;;;2.40;99.90;1.40;100044.00;;;;4950906;28;89063;-62
2021/11/25 06:52:36;;;;;;;28.90;18.53;;;1.70;99.90;1.50;100039.00;;;;4948969;28;88808;-62
2021/11/25 06:55:02;;;;;;;22.77;14.57;;;2.40;99.90;1.50;100039.00;;;;4951585;28;87685;-63
2021/11/25 06:57:27;;;;;;;24.77;14.50;;;1.70;99.90;1.60;100042.00;;;;4950477;28;92626;-63
2021/11/25 06:59:53;;;;;;;25.40;14.63;;;1.80;99.90;1.60;100048.00;;;;4949909;28;118475;-64
2021/11/25 07:02:19;;;;;;;21.63;14.00;;;1.90;99.90;1.70;100044.00;;;;4949019;28;117446;-63
2021/11/25 07:04:44;;;;;;;22.93;15.30;;;2.60;99.90;1.70;100037.00;;;;4950601;28;111749;-62
2021/11/25 07:07:10;;;;;;;19.80;14.00;;;2.70;99.90;1.80;100042.00;;;;4932765;28;106763;-62
2021/11/25 07:09:39;;;;;;;22.80;13.50;;;2.10;99.90;1.80;100050.00;;;;4950453;28;117420;-62
2021/11/25 07:12:05;;;;;;;17.27;12.07;;;2.10;99.90;1.90;100043.00;;;;4942905;28;94876;-62
2021/11/25 07:14:31;;;;;;;20.83;13.27;;;2.10;99.90;1.90;100045.00;;;;4946627;28;88762;-63
2021/11/25 07:16:57;;;;;;;18.37;13.63;;;2.30;99.90;2.00;100045.00;;;;4953116;28;109120;-63
2021/11/25 07:19:23;;;;;;;19.30;12.30;;;3.10;99.90;2.00;100036.00;;;;4935283;28;117465;-63
2021/11/25 07:21:48;;;;;;;25.40;13.83;;;2.30;99.90;2.10;100043.00;;;;4949912;28;87782;-63
2021/11/25 07:24:14;;;;;;;20.40;12.90;;;2.30;99.90;2.10;100044.00;;;;4952143;28;112098;-63
2021/11/25 07:26:40;;;;;;;19.00;12.50;;;2.30;99.90;2.10;100040.00;;;;4951354;28;108500;-63
2021/11/25 07:29:07;;;;;;;24.27;13.43;;;3.00;99.90;2.20;100031.00;;;;4950169;28;103109;-63
2021/11/25 07:31:35;;;;;;;27.00;15.40;;;2.30;99.90;2.20;100029.00;;;;4943008;28;88755;-63
2021/11/25 07:34:01;;;;;;;23.60;14.73;;;2.50;99.90;2.20;100032.00;;;;4945467;28;96006;-63
2021/11/25 07:36:27;;;;;;;20.27;13.20;;;3.20;99.90;2.20;100033.00;;;;4969980;28;87932;-63
2021/11/25 07:38:53;;;;;;;17.87;12.43;;;2.50;99.90;2.20;100023.00;;;;4969004;28;118852;-64
2021/11/25 07:41:19;;;;;;;21.77;13.63;;;2.60;99.90;2.20;100032.00;;;;4964424;28;88193;-63
2021/11/25 07:43:45;;;;;;;22.07;13.17;;;3.10;99.90;2.30;100021.00;;;;4970752;28;89510;-63
2021/11/25 07:46:11;;;;;;;18.97;12.43;;;2.80;99.90;2.20;100032.00;;;;4971638;28;87912;-63
2021/11/25 07:48:38;;;;;;;18.07;12.03;;;3.20;99.90;2.30;100034.00;;;;4972545;28;118585;-63
2021/11/25 07:51:04;;;;;;;21.27;13.57;;;3.00;99.90;2.30;100032.00;;;;4969394;28;117276;-64
2021/11/25 07:53:29;;;;;;;19.87;12.27;;;3.10;99.90;2.30;100034.00;;;;4970738;28;89642;-64
2021/11/25 07:55:56;;;;;;;24.93;13.97;;;2.60;99.90;2.40;100028.00;;;;4974048;28;87033;-64
2021/11/25 07:58:23;;;;;;;23.23;14.23;;;2.60;99.90;2.40;100026.00;;;;4969768;28;88049;-64
2021/11/25 08:00:49;;;;;;;21.20;14.50;;;2.60;99.90;2.40;100026.00;;;;4973253;28;88952;-65
2021/11/25 08:03:15;;;;;;;25.10;14.23;;;3.00;99.90;2.50;100021.00;;;;4970563;28;92150;-64
2021/11/25 08:05:41;;;;;;;21.50;13.73;;;2.70;99.90;2.50;100019.00;;;;4949332;28;108321;-63
2021/11/25 08:08:09;;;;;;;18.30;12.23;;;2.70;99.90;2.50;100015.00;;;;4965836;28;101042;-64
2021/11/25 08:10:36;;;;;;;24.63;15.17;;;2.70;99.90;2.60;100012.00;;;;4973917;28;87835;-63
2021/11/25 08:13:04;;;;;;;21.90;13.10;;;2.70;99.90;2.60;100018.00;;;;4965740;28;87926;-63
2021/11/25 08:15:31;;;;;;;16.73;13.43;;;2.80;99.90;2.70;100027.00;;;;4970130;28;87877;-64
2021/11/25 08:17:57;;;;;;;22.23;14.23;;;2.80;99.90;2.70;100021.00;;;;4972586;28;101806;-64
2021/11/25 08:20:23;;;;;;;25.30;14.77;;;2.90;99.90;2.70;100026.00;;;;4965485;28;88406;-63
2021/11/25 08:22:49;;;;;;;19.47;13.50;;;3.00;99.90;2.70;100018.00;;;;4966739;28;87700;-63
2021/11/25 08:25:16;;;;;;;32.33;12.47;;;2.90;99.90;2.70;100017.00;;;;4971187;28;87708;-61
2021/11/25 08:27:41;;;;;;;23.23;13.90;;;3.70;99.90;2.70;100025.00;;;;4966187;28;89716;-62
2021/11/25 08:30:12;;;;;;;21.77;12.83;;;3.10;99.90;2.70;100027.00;;;;4973270;28;89394;-62
2021/11/25 08:32:38;;;;;;;22.60;11.47;;;2.90;99.90;2.70;100032.00;;;;4970632;28;87987;-62
2021/11/25 08:35:05;;;;;;;21.27;11.43;;;3.00;99.90;2.80;100024.00;;;;4973253;28;88070;-61
2021/11/25 08:37:34;;;;;;;23.93;14.20;;;3.00;99.90;2.80;100020.00;;;;4965979;28;89088;-63
2021/11/25 08:40:00;;;;;;;18.27;13.03;;;3.10;99.90;2.80;100010.00;;;;4972984;28;102930;-62
2021/11/25 08:42:25;;;;;;;20.17;14.63;;;3.10;99.90;2.90;100020.00;;;;4971835;28;97361;-62
2021/11/25 08:44:51;;;;;;;20.87;12.37;;;3.00;99.90;2.90;100021.00;;;;4972144;28;88310;-62
2021/11/25 08:47:18;;;;;;;24.20;13.07;;;3.10;99.90;2.90;100008.00;;;;4966154;28;88213;-62
2021/11/25 08:49:44;;;;;;;25.40;13.77;;;3.30;99.90;2.90;99999.00;;;;4965839;28;87875;-62
2021/11/25 08:52:10;;;;;;;17.67;12.93;;;3.20;99.90;3.00;99988.00;;;;4971740;28;88832;-62
2021/11/25 08:54:36;;;;;;;19.40;12.60;;;3.20;99.90;3.00;99995.00;;;;4973181;28;96301;-63
2021/11/25 08:57:02;;;;;;;21.03;11.60;;;3.20;99.90;3.00;99993.00;;;;4971953;28;89140;-62
2021/11/25 08:59:28;;;;;;;20.23;13.70;;;3.20;99.90;3.00;99990.00;;;;4973111;28;88715;-63
2021/11/25 09:01:54;;;;;;;18.03;12.50;;;3.20;99.90;3.10;100000.00;;;;4968205;28;87835;-63
2021/11/25 09:04:20;;;;;;;21.33;13.10;;;3.90;99.90;3.10;99997.00;;;;4961933;28;88396;-63
2021/11/25 09:06:46;;;;;;;19.63;12.20;;;3.30;99.90;3.10;99997.00;;;;4968755;28;105697;-63
2021/11/25 09:09:12;;;;;;;21.27;11.83;;;4.10;99.90;3.10;99990.00;;;;4972667;28;116358;-63
2021/11/25 09:11:38;;;;;;;18.67;12.47;;;3.20;99.90;3.10;99980.00;;;;4969054;28;88000;-63
2021/11/25 09:14:05;;;;;;;21.40;12.63;;;3.30;99.90;3.10;99994.00;;;;4963762;28;87877;-62
2021/11/25 09:16:31;;;;;;;20.03;14.00;;;3.10;99.90;3.20;99986.00;;;;4970841;28;89792;-63
2021/11/25 09:18:57;;;;;;;23.30;12.97;;;3.40;99.90;3.20;99984.00;;;;4971592;28;89740;-62
2021/11/25 09:21:23;;;;;;;21.60;13.37;;;3.40;99.90;3.20;99981.00;;;;4972262;28;111618;-62
2021/11/25 09:23:49;;;;;;;19.30;13.40;;;3.40;99.90;3.20;99988.00;;;;4970735;28;87848;-63
2021/11/25 09:26:17;;;;;;;17.67;12.13;;;3.40;99.90;3.30;99991.00;;;;4972117;28;88756;-64
2021/11/25 09:28:45;;;;;;;21.57;12.63;;;3.40;99.90;3.30;99988.00;;;;4968165;28;87915;-63
2021/11/25 09:31:15;;;;;;;21.77;12.40;;;3.40;99.90;3.30;99980.00;;;;4972678;28;87825;-63
2021/11/25 09:33:42;;;;;;;17.80;12.80;;;4.10;99.90;3.30;99991.00;;;;4970571;28;87126;-64
2021/11/25 09:36:08;;;;;;;22.13;12.67;;;3.50;99.90;3.30;99990.00;;;;4965271;28;99297;-63
2021/11/25 09:38:34;;;;;;;17.83;11.67;;;3.50;99.90;3.40;99987.00;;;;4964153;28;118425;-63
2021/11/25 09:41:03;;;;;;;17.00;11.47;;;3.50;99.90;3.30;99986.00;;;;4971772;28;97667;-63
2021/11/25 09:43:29;;;;;;;21.17;13.23;;;3.50;99.90;3.30;99973.00;;;;4969350;28;87936;-64
2021/11/25 09:45:56;;;;;;;19.77;12.93;;;3.60;99.90;3.30;99971.00;;;;4970842;28;118812;-64
2021/11/25 09:48:26;;;;;;;22.23;12.57;;;3.60;99.90;3.40;99963.00;;;;4967696;28;87890;-64
2021/11/25 09:50:55;;;;;;;19.90;12.43;;;3.90;99.90;3.40;99953.00;;;;4965977;28;88197;-64
2021/11/25 09:53:24;;;;;;;18.87;11.50;;;3.60;99.90;3.40;99963.00;;;;4972547;28;88018;-63
2021/11/25 09:55:52;;;;;;;19.30;12.70;;;3.60;99.90;3.40;99958.00;;;;4971553;28;89020;-63
2021/11/25 09:58:25;;;;;;;17.93;12.17;;;3.50;99.90;3.40;99955.00;;;;4967020;28;88317;-63
2021/11/25 10:01:02;;;;;;;18.87;12.53;;;3.60;99.90;3.40;99952.00;;;;4971662;28;87879;-62
2021/11/25 10:03:27;;;;;;;24.40;11.93;;;3.70;99.90;3.40;99952.00;;;;4969922;28;88035;-64
2021/11/25 10:05:56;;;;;;;22.67;12.93;;;3.70;99.90;3.50;99950.00;;;;4969528;28;100668;-62
2021/11/25 10:08:48;;;;;;;20.40;13.23;;;3.60;99.90;3.40;99948.00;;;;4970542;28;89479;-61
2021/11/25 10:11:32;;;;;;;19.10;11.77;;;3.70;99.90;3.50;99940.00;;;;4965729;28;87934;-63
2021/11/25 10:14:18;;;;;;;16.63;11.43;;;3.70;99.90;3.50;99935.00;;;;4967066;28;88663;-65
2021/11/25 10:16:47;;;;;;;21.20;12.30;;;3.70;99.90;3.50;99942.00;;;;4968738;28;119759;-64
2021/11/25 10:19:19;;;;;;;24.57;13.17;;;3.70;99.90;3.40;99930.00;;;;4971800;28;88056;-65
2021/11/25 10:21:56;;;;;;;19.17;12.30;;;3.60;99.90;3.40;99930.00;;;;4968538;28;87741;-63
2021/11/25 10:24:40;;;;;;;22.43;13.37;;;3.60;99.90;3.40;99920.00;;;;4965161;28;89638;-64
2021/11/25 10:27:25;;;;;;;18.63;12.93;;;3.60;99.90;3.40;99906.00;;;;4964242;28;88713;-63
2021/11/25 10:30:14;;;;;;;17.17;11.87;;;3.60;99.90;3.40;99914.00;;;;4953568;28;87790;-63
2021/11/25 10:32:39;;;;;;;16.87;11.63;;;3.60;99.90;3.40;99906.00;;;;4966723;28;88571;-64
2021/11/25 10:35:29;;;;;;;17.07;12.03;;;3.10;99.90;3.50;99908.00;;;;4970077;28;110222;-63
2021/11/25 10:40:29;;;;;;;17.90;11.53;;;3.60;99.90;3.50;99895.00;;;;4969619;28;87828;-63
2021/11/25 10:42:55;;;;;;;18.60;12.13;;;3.70;99.90;3.60;99901.00;;;;4968785;28;87594;-63
2021/11/25 10:45:22;;;;;;;20.27;12.27;;;3.80;99.90;3.60;99902.00;;;;4965184;28;87745;-62
2021/11/25 10:48:04;;;;;;;22.17;13.07;;;3.70;99.90;3.60;99896.00;;;;4974865;28;88646;-63
2021/11/25 10:50:33;;;;;;;16.70;11.53;;;3.80;99.90;3.60;99895.00;;;;4971318;28;87221;-64
2021/11/25 10:53:08;;;;;;;15.47;10.67;;;3.80;99.90;3.60;99903.00;;;;4969377;28;87841;-65